sensor_id;sensor_type;location;lat;lon;timestamp;P1;durP1;ratioP1;P2;durP2;ratioP2
3343;SDS011;1685;53.104;8.228;2023-05-06T00:01:13;35.97;;;21.67;;
3343;SDS011;1685;53.104;8.228;2023-05-06T00:03:40;27.10;;;20.50;;
3343;SDS011;1685;53.104;8.228;2023-05-06T00:06:08;34.30;;;21.67;;
3343;SDS011;1685;53.104;8.228;2023-05-06T00:08:35;32.07;;;22.00;;
3343;SDS011;1685;53.104;8.228;2023-05-06T00:11:02;31.40;;;20.20;;
3343;SDS011;1685;53.104;8.228;2023-05-06T00:13:30;32.30;;;21.97;;
3343;SDS011;1685;53.104;8.228;2023-05-06T00:15:57;31.70;;;21.00;;
3343;SDS011;1685;53.104;8.228;2023-05-06T00:18:24;40.83;;;23.63;;
3343;SDS011;1685;53.104;8.228;2023-05-06T00:20:51;32.13;;;21.33;;
3343;SDS011;1685;53.104;8.228;2023-05-06T00:23:20;32.77;;;22.87;;
3343;SDS011;1685;53.104;8.228;2023-05-06T00:25:46;31.40;;;22.03;;
3343;SDS011;1685;53.104;8.228;2023-05-06T00:28:14;35.37;;;22.90;;
3343;SDS011;1685;53.104;8.228;2023-05-06T00:30:41;36.07;;;23.47;;
3343;SDS011;1685;53.104;8.228;2023-05-06T00:33:08;37.33;;;22.93;;
3343;SDS011;1685;53.104;8.228;2023-05-06T00:35:35;39.57;;;24.70;;
3343;SDS011;1685;53.104;8.228;2023-05-06T00:38:05;39.20;;;24.47;;
3343;SDS011;1685;53.104;8.228;2023-05-06T00:40:35;38.07;;;25.47;;
3343;SDS011;1685;53.104;8.228;2023-05-06T00:43:02;37.20;;;26.37;;
3343;SDS011;1685;53.104;8.228;2023-05-06T00:45:29;44.40;;;24.60;;
3343;SDS011;1685;53.104;8.228;2023-05-06T00:47:56;43.60;;;26.07;;
3343;SDS011;1685;53.104;8.228;2023-05-06T00:50:23;44.63;;;27.40;;
3343;SDS011;1685;53.104;8.228;2023-05-06T00:52:52;40.30;;;26.13;;
3343;SDS011;1685;53.104;8.228;2023-05-06T00:55:19;39.80;;;27.53;;
3343;SDS011;1685;53.104;8.228;2023-05-06T00:57:48;39.33;;;27.77;;
3343;SDS011;1685;53.104;8.228;2023-05-06T01:00:16;48.50;;;29.13;;
3343;SDS011;1685;53.104;8.228;2023-05-06T01:02:43;48.17;;;28.50;;
3343;SDS011;1685;53.104;8.228;2023-05-06T01:05:10;48.60;;;28.70;;
3343;SDS011;1685;53.104;8.228;2023-05-06T01:07:39;48.13;;;24.93;;
3343;SDS011;1685;53.104;8.228;2023-05-06T01:10:12;42.40;;;27.50;;
3343;SDS011;1685;53.104;8.228;2023-05-06T01:12:49;42.70;;;29.03;;
3343;SDS011;1685;53.104;8.228;2023-05-06T01:15:24;49.37;;;29.20;;
3343;SDS011;1685;53.104;8.228;2023-05-06T01:17:57;42.70;;;28.20;;
3343;SDS011;1685;53.104;8.228;2023-05-06T01:20:30;43.27;;;27.43;;
3343;SDS011;1685;53.104;8.228;2023-05-06T01:22:58;41.50;;;26.30;;
3343;SDS011;1685;53.104;8.228;2023-05-06T01:25:26;47.13;;;30.07;;
3343;SDS011;1685;53.104;8.228;2023-05-06T01:27:54;45.80;;;27.47;;
3343;SDS011;1685;53.104;8.228;2023-05-06T01:30:21;47.37;;;27.87;;
3343;SDS011;1685;53.104;8.228;2023-05-06T01:32:50;49.90;;;29.33;;
3343;SDS011;1685;53.104;8.228;2023-05-06T01:35:23;45.80;;;27.43;;
3343;SDS011;1685;53.104;8.228;2023-05-06T01:37:59;39.40;;;27.50;;
3343;SDS011;1685;53.104;8.228;2023-05-06T01:40:35;45.33;;;27.20;;
3343;SDS011;1685;53.104;8.228;2023-05-06T01:43:04;44.60;;;29.00;;
3343;SDS011;1685;53.104;8.228;2023-05-06T01:45:32;47.37;;;26.37;;
3343;SDS011;1685;53.104;8.228;2023-05-06T01:48:01;46.67;;;26.17;;
3343;SDS011;1685;53.104;8.228;2023-05-06T01:50:28;40.80;;;26.60;;
3343;SDS011;1685;53.104;8.228;2023-05-06T01:52:59;47.63;;;27.33;;
3343;SDS011;1685;53.104;8.228;2023-05-06T01:55:29;41.03;;;25.77;;
3343;SDS011;1685;53.104;8.228;2023-05-06T01:57:58;39.43;;;25.00;;
3343;SDS011;1685;53.104;8.228;2023-05-06T02:00:24;49.40;;;28.00;;
3343;SDS011;1685;53.104;8.228;2023-05-06T02:02:52;44.50;;;26.60;;
3343;SDS011;1685;53.104;8.228;2023-05-06T02:05:19;51.03;;;30.70;;
3343;SDS011;1685;53.104;8.228;2023-05-06T02:07:46;50.60;;;29.07;;
3343;SDS011;1685;53.104;8.228;2023-05-06T02:10:13;66.97;;;33.10;;
3343;SDS011;1685;53.104;8.228;2023-05-06T02:12:41;58.57;;;31.23;;
3343;SDS011;1685;53.104;8.228;2023-05-06T02:15:10;58.33;;;32.00;;
3343;SDS011;1685;53.104;8.228;2023-05-06T02:17:37;60.67;;;28.70;;
3343;SDS011;1685;53.104;8.228;2023-05-06T02:20:04;50.50;;;30.43;;
3343;SDS011;1685;53.104;8.228;2023-05-06T02:22:33;59.10;;;29.87;;
3343;SDS011;1685;53.104;8.228;2023-05-06T02:25:00;51.47;;;28.97;;
3343;SDS011;1685;53.104;8.228;2023-05-06T02:27:27;58.47;;;32.83;;
3343;SDS011;1685;53.104;8.228;2023-05-06T02:29:54;63.40;;;32.70;;
3343;SDS011;1685;53.104;8.228;2023-05-06T02:32:23;77.53;;;32.00;;
3343;SDS011;1685;53.104;8.228;2023-05-06T02:34:50;49.10;;;28.83;;
3343;SDS011;1685;53.104;8.228;2023-05-06T02:37:17;64.37;;;31.03;;
3343;SDS011;1685;53.104;8.228;2023-05-06T02:39:44;65.67;;;32.73;;
3343;SDS011;1685;53.104;8.228;2023-05-06T02:42:12;60.33;;;32.23;;
3343;SDS011;1685;53.104;8.228;2023-05-06T02:44:39;53.27;;;29.40;;
3343;SDS011;1685;53.104;8.228;2023-05-06T02:47:07;60.30;;;32.57;;
3343;SDS011;1685;53.104;8.228;2023-05-06T02:49:35;60.77;;;31.00;;
3343;SDS011;1685;53.104;8.228;2023-05-06T02:52:02;61.37;;;32.20;;
3343;SDS011;1685;53.104;8.228;2023-05-06T02:54:29;56.40;;;31.13;;
3343;SDS011;1685;53.104;8.228;2023-05-06T02:56:56;48.97;;;29.33;;
3343;SDS011;1685;53.104;8.228;2023-05-06T02:59:23;47.07;;;28.50;;
3343;SDS011;1685;53.104;8.228;2023-05-06T03:01:50;44.33;;;28.07;;
3343;SDS011;1685;53.104;8.228;2023-05-06T03:04:17;41.20;;;25.30;;
3343;SDS011;1685;53.104;8.228;2023-05-06T03:06:46;34.73;;;24.53;;
3343;SDS011;1685;53.104;8.228;2023-05-06T03:09:13;42.40;;;26.03;;
3343;SDS011;1685;53.104;8.228;2023-05-06T03:11:40;49.00;;;26.03;;
3343;SDS011;1685;53.104;8.228;2023-05-06T03:14:07;47.37;;;25.00;;
3343;SDS011;1685;53.104;8.228;2023-05-06T03:16:34;42.10;;;25.03;;
3343;SDS011;1685;53.104;8.228;2023-05-06T03:19:01;45.53;;;24.93;;
3343;SDS011;1685;53.104;8.228;2023-05-06T03:21:28;40.73;;;25.90;;
3343;SDS011;1685;53.104;8.228;2023-05-06T03:23:57;46.33;;;26.10;;
3343;SDS011;1685;53.104;8.228;2023-05-06T03:26:24;43.07;;;24.83;;
3343;SDS011;1685;53.104;8.228;2023-05-06T03:28:51;37.90;;;24.97;;
3343;SDS011;1685;53.104;8.228;2023-05-06T03:31:18;37.83;;;24.07;;
3343;SDS011;1685;53.104;8.228;2023-05-06T03:33:45;36.10;;;22.60;;
3343;SDS011;1685;53.104;8.228;2023-05-06T03:36:12;40.60;;;25.10;;
3343;SDS011;1685;53.104;8.228;2023-05-06T03:38:39;41.70;;;23.50;;
3343;SDS011;1685;53.104;8.228;2023-05-06T03:41:07;38.90;;;23.43;;
3343;SDS011;1685;53.104;8.228;2023-05-06T03:43:34;38.83;;;23.70;;
3343;SDS011;1685;53.104;8.228;2023-05-06T03:46:01;43.40;;;23.77;;
3343;SDS011;1685;53.104;8.228;2023-05-06T03:48:28;44.23;;;25.87;;
3343;SDS011;1685;53.104;8.228;2023-05-06T03:50:56;43.07;;;24.57;;
3343;SDS011;1685;53.104;8.228;2023-05-06T03:53:23;41.70;;;25.17;;
3343;SDS011;1685;53.104;8.228;2023-05-06T03:55:50;40.47;;;23.53;;
3343;SDS011;1685;53.104;8.228;2023-05-06T03:58:18;46.03;;;24.90;;
3343;SDS011;1685;53.104;8.228;2023-05-06T04:00:46;46.03;;;25.30;;
3343;SDS011;1685;53.104;8.228;2023-05-06T04:03:13;38.40;;;24.73;;
3343;SDS011;1685;53.104;8.228;2023-05-06T04:05:40;44.03;;;26.50;;
3343;SDS011;1685;53.104;8.228;2023-05-06T04:08:07;39.70;;;24.17;;
3343;SDS011;1685;53.104;8.228;2023-05-06T04:10:37;57.27;;;26.40;;
3343;SDS011;1685;53.104;8.228;2023-05-06T04:13:04;52.30;;;27.17;;
3343;SDS011;1685;53.104;8.228;2023-05-06T04:15:32;48.83;;;26.77;;
3343;SDS011;1685;53.104;8.228;2023-05-06T04:17:59;37.63;;;24.40;;
3343;SDS011;1685;53.104;8.228;2023-05-06T04:20:26;42.57;;;25.27;;
3343;SDS011;1685;53.104;8.228;2023-05-06T04:22:53;43.87;;;26.70;;
3343;SDS011;1685;53.104;8.228;2023-05-06T04:25:21;41.30;;;26.23;;
3343;SDS011;1685;53.104;8.228;2023-05-06T04:27:48;45.47;;;25.40;;
3343;SDS011;1685;53.104;8.228;2023-05-06T04:30:15;47.53;;;26.30;;
3343;SDS011;1685;53.104;8.228;2023-05-06T04:32:43;40.03;;;25.30;;
3343;SDS011;1685;53.104;8.228;2023-05-06T04:35:10;57.10;;;27.37;;
3343;SDS011;1685;53.104;8.228;2023-05-06T04:37:37;44.80;;;26.20;;
3343;SDS011;1685;53.104;8.228;2023-05-06T04:40:05;50.77;;;27.47;;
3343;SDS011;1685;53.104;8.228;2023-05-06T04:42:33;41.90;;;25.27;;
3343;SDS011;1685;53.104;8.228;2023-05-06T04:45:00;46.40;;;25.23;;
3343;SDS011;1685;53.104;8.228;2023-05-06T04:47:27;42.70;;;26.00;;
3343;SDS011;1685;53.104;8.228;2023-05-06T04:49:55;41.47;;;25.27;;
3343;SDS011;1685;53.104;8.228;2023-05-06T04:52:22;41.43;;;26.97;;
3343;SDS011;1685;53.104;8.228;2023-05-06T04:54:50;39.00;;;24.50;;
3343;SDS011;1685;53.104;8.228;2023-05-06T04:57:17;41.57;;;26.10;;
3343;SDS011;1685;53.104;8.228;2023-05-06T04:59:44;54.47;;;27.73;;
3343;SDS011;1685;53.104;8.228;2023-05-06T05:02:11;54.40;;;26.70;;
3343;SDS011;1685;53.104;8.228;2023-05-06T05:04:38;51.43;;;27.13;;
3343;SDS011;1685;53.104;8.228;2023-05-06T05:07:07;90.67;;;30.53;;
3343;SDS011;1685;53.104;8.228;2023-05-06T05:09:34;51.37;;;26.57;;
3343;SDS011;1685;53.104;8.228;2023-05-06T05:12:01;217.00;;;29.50;;
3343;SDS011;1685;53.104;8.228;2023-05-06T05:14:28;54.00;;;29.27;;
3343;SDS011;1685;53.104;8.228;2023-05-06T05:16:55;41.03;;;24.07;;
3343;SDS011;1685;53.104;8.228;2023-05-06T05:19:22;52.50;;;27.93;;
3343;SDS011;1685;53.104;8.228;2023-05-06T05:21:49;41.27;;;24.40;;
3343;SDS011;1685;53.104;8.228;2023-05-06T05:24:18;56.23;;;27.87;;
3343;SDS011;1685;53.104;8.228;2023-05-06T05:26:44;48.40;;;27.17;;
3343;SDS011;1685;53.104;8.228;2023-05-06T05:29:12;54.90;;;27.53;;
3343;SDS011;1685;53.104;8.228;2023-05-06T05:31:39;48.53;;;27.50;;
3343;SDS011;1685;53.104;8.228;2023-05-06T05:34:06;48.90;;;27.53;;
3343;SDS011;1685;53.104;8.228;2023-05-06T05:36:33;46.47;;;27.07;;
3343;SDS011;1685;53.104;8.228;2023-05-06T05:39:00;67.37;;;27.70;;
3343;SDS011;1685;53.104;8.228;2023-05-06T05:41:29;54.60;;;28.80;;
3343;SDS011;1685;53.104;8.228;2023-05-06T05:43:56;51.50;;;28.57;;
3343;SDS011;1685;53.104;8.228;2023-05-06T05:46:23;55.57;;;29.90;;
3343;SDS011;1685;53.104;8.228;2023-05-06T05:48:50;51.20;;;28.10;;
3343;SDS011;1685;53.104;8.228;2023-05-06T05:51:17;59.40;;;30.03;;
3343;SDS011;1685;53.104;8.228;2023-05-06T05:53:44;85.57;;;31.03;;
3343;SDS011;1685;53.104;8.228;2023-05-06T05:56:11;62.50;;;30.30;;
3343;SDS011;1685;53.104;8.228;2023-05-06T05:58:39;71.73;;;30.47;;
3343;SDS011;1685;53.104;8.228;2023-05-06T06:01:06;117.13;;;29.20;;
3343;SDS011;1685;53.104;8.228;2023-05-06T06:03:33;67.17;;;31.97;;
3343;SDS011;1685;53.104;8.228;2023-05-06T06:06:00;53.20;;;30.30;;
3343;SDS011;1685;53.104;8.228;2023-05-06T06:08:27;50.60;;;27.13;;
3343;SDS011;1685;53.104;8.228;2023-05-06T06:10:56;51.27;;;28.10;;
3343;SDS011;1685;53.104;8.228;2023-05-06T06:13:23;57.70;;;28.70;;
3343;SDS011;1685;53.104;8.228;2023-05-06T06:15:52;53.57;;;28.53;;
3343;SDS011;1685;53.104;8.228;2023-05-06T06:18:20;49.00;;;26.93;;
3343;SDS011;1685;53.104;8.228;2023-05-06T06:20:48;53.23;;;28.60;;
3343;SDS011;1685;53.104;8.228;2023-05-06T06:23:15;81.73;;;29.07;;
3343;SDS011;1685;53.104;8.228;2023-05-06T06:25:42;47.10;;;27.43;;
3343;SDS011;1685;53.104;8.228;2023-05-06T06:28:09;48.53;;;26.80;;
3343;SDS011;1685;53.104;8.228;2023-05-06T06:30:36;65.43;;;26.73;;
3343;SDS011;1685;53.104;8.228;2023-05-06T06:33:04;57.20;;;27.80;;
3343;SDS011;1685;53.104;8.228;2023-05-06T06:35:31;43.30;;;26.53;;
3343;SDS011;1685;53.104;8.228;2023-05-06T06:37:58;49.17;;;25.97;;
3343;SDS011;1685;53.104;8.228;2023-05-06T06:40:26;53.27;;;29.53;;
3343;SDS011;1685;53.104;8.228;2023-05-06T06:42:54;44.43;;;27.03;;
3343;SDS011;1685;53.104;8.228;2023-05-06T06:45:21;53.60;;;27.70;;
3343;SDS011;1685;53.104;8.228;2023-05-06T06:47:48;51.47;;;26.60;;
3343;SDS011;1685;53.104;8.228;2023-05-06T06:50:16;49.03;;;26.07;;
3343;SDS011;1685;53.104;8.228;2023-05-06T06:52:43;44.17;;;25.30;;
3343;SDS011;1685;53.104;8.228;2023-05-06T06:55:10;49.60;;;28.70;;
3343;SDS011;1685;53.104;8.228;2023-05-06T06:57:38;49.27;;;25.90;;
3343;SDS011;1685;53.104;8.228;2023-05-06T07:00:05;54.90;;;28.67;;
3343;SDS011;1685;53.104;8.228;2023-05-06T07:02:32;54.13;;;29.30;;
3343;SDS011;1685;53.104;8.228;2023-05-06T07:05:00;51.90;;;28.07;;
3343;SDS011;1685;53.104;8.228;2023-05-06T07:07:28;49.77;;;27.90;;
3343;SDS011;1685;53.104;8.228;2023-05-06T07:09:55;55.47;;;28.77;;
3343;SDS011;1685;53.104;8.228;2023-05-06T07:12:22;54.20;;;26.93;;
3343;SDS011;1685;53.104;8.228;2023-05-06T07:14:50;48.50;;;28.30;;
3343;SDS011;1685;53.104;8.228;2023-05-06T07:17:17;48.37;;;27.47;;
3343;SDS011;1685;53.104;8.228;2023-05-06T07:19:44;43.60;;;27.57;;
3343;SDS011;1685;53.104;8.228;2023-05-06T07:22:12;51.37;;;28.13;;
3343;SDS011;1685;53.104;8.228;2023-05-06T07:24:40;53.60;;;27.37;;
3343;SDS011;1685;53.104;8.228;2023-05-06T07:27:07;48.97;;;27.63;;
3343;SDS011;1685;53.104;8.228;2023-05-06T07:29:34;45.43;;;25.73;;
3343;SDS011;1685;53.104;8.228;2023-05-06T07:32:01;43.67;;;26.30;;
3343;SDS011;1685;53.104;8.228;2023-05-06T07:34:28;46.70;;;27.93;;
3343;SDS011;1685;53.104;8.228;2023-05-06T07:36:58;46.83;;;25.63;;
3343;SDS011;1685;53.104;8.228;2023-05-06T07:39:25;47.03;;;26.60;;
3343;SDS011;1685;53.104;8.228;2023-05-06T07:41:53;43.00;;;24.53;;
3343;SDS011;1685;53.104;8.228;2023-05-06T07:44:20;40.13;;;24.63;;
3343;SDS011;1685;53.104;8.228;2023-05-06T07:46:47;48.07;;;27.60;;
3343;SDS011;1685;53.104;8.228;2023-05-06T07:49:14;46.83;;;26.20;;
3343;SDS011;1685;53.104;8.228;2023-05-06T07:51:42;45.00;;;26.07;;
3343;SDS011;1685;53.104;8.228;2023-05-06T07:54:09;43.33;;;24.97;;
3343;SDS011;1685;53.104;8.228;2023-05-06T07:56:36;37.80;;;23.80;;
3343;SDS011;1685;53.104;8.228;2023-05-06T07:59:05;35.90;;;23.57;;
3343;SDS011;1685;53.104;8.228;2023-05-06T08:01:31;38.57;;;23.60;;
3343;SDS011;1685;53.104;8.228;2023-05-06T08:03:58;35.77;;;24.37;;
3343;SDS011;1685;53.104;8.228;2023-05-06T08:06:25;37.63;;;24.00;;
3343;SDS011;1685;53.104;8.228;2023-05-06T08:08:53;40.03;;;23.93;;
3343;SDS011;1685;53.104;8.228;2023-05-06T08:11:20;44.17;;;23.37;;
3343;SDS011;1685;53.104;8.228;2023-05-06T08:13:47;34.27;;;22.43;;
3343;SDS011;1685;53.104;8.228;2023-05-06T08:16:16;36.87;;;21.77;;
3343;SDS011;1685;53.104;8.228;2023-05-06T08:18:42;35.70;;;21.60;;
3343;SDS011;1685;53.104;8.228;2023-05-06T08:21:09;40.47;;;22.83;;
3343;SDS011;1685;53.104;8.228;2023-05-06T08:23:37;33.43;;;21.33;;
3343;SDS011;1685;53.104;8.228;2023-05-06T08:26:04;33.30;;;21.20;;
3343;SDS011;1685;53.104;8.228;2023-05-06T08:28:31;37.07;;;22.97;;
3343;SDS011;1685;53.104;8.228;2023-05-06T08:30:58;33.27;;;20.40;;
3343;SDS011;1685;53.104;8.228;2023-05-06T08:33:26;30.83;;;21.27;;
3343;SDS011;1685;53.104;8.228;2023-05-06T08:35:54;37.13;;;22.83;;
3343;SDS011;1685;53.104;8.228;2023-05-06T08:38:22;29.00;;;19.90;;
3343;SDS011;1685;53.104;8.228;2023-05-06T08:40:49;32.90;;;21.57;;
3343;SDS011;1685;53.104;8.228;2023-05-06T08:43:19;32.77;;;21.97;;
3343;SDS011;1685;53.104;8.228;2023-05-06T08:45:46;31.80;;;21.03;;
3343;SDS011;1685;53.104;8.228;2023-05-06T08:48:14;33.50;;;21.63;;
3343;SDS011;1685;53.104;8.228;2023-05-06T08:50:43;30.17;;;19.50;;
3343;SDS011;1685;53.104;8.228;2023-05-06T08:53:10;32.47;;;20.90;;
3343;SDS011;1685;53.104;8.228;2023-05-06T08:55:39;32.40;;;20.97;;
3343;SDS011;1685;53.104;8.228;2023-05-06T08:58:07;28.77;;;19.50;;
3343;SDS011;1685;53.104;8.228;2023-05-06T09:00:35;32.30;;;21.90;;
3343;SDS011;1685;53.104;8.228;2023-05-06T09:03:03;29.53;;;19.20;;
3343;SDS011;1685;53.104;8.228;2023-05-06T09:05:30;29.30;;;19.33;;
3343;SDS011;1685;53.104;8.228;2023-05-06T09:07:58;31.53;;;19.87;;
3343;SDS011;1685;53.104;8.228;2023-05-06T09:10:30;31.60;;;19.20;;
3343;SDS011;1685;53.104;8.228;2023-05-06T09:12:57;27.30;;;19.00;;
3343;SDS011;1685;53.104;8.228;2023-05-06T09:15:24;31.50;;;18.80;;
3343;SDS011;1685;53.104;8.228;2023-05-06T09:17:52;26.83;;;17.93;;
3343;SDS011;1685;53.104;8.228;2023-05-06T09:20:20;27.93;;;18.77;;
3343;SDS011;1685;53.104;8.228;2023-05-06T09:22:47;26.80;;;19.37;;
3343;SDS011;1685;53.104;8.228;2023-05-06T09:25:15;27.70;;;18.93;;
3343;SDS011;1685;53.104;8.228;2023-05-06T09:27:42;32.30;;;19.80;;
3343;SDS011;1685;53.104;8.228;2023-05-06T09:30:10;24.80;;;17.40;;
3343;SDS011;1685;53.104;8.228;2023-05-06T09:32:38;30.23;;;20.73;;
3343;SDS011;1685;53.104;8.228;2023-05-06T09:35:06;32.97;;;20.60;;
3343;SDS011;1685;53.104;8.228;2023-05-06T09:37:33;29.60;;;19.53;;
3343;SDS011;1685;53.104;8.228;2023-05-06T09:40:00;29.97;;;18.90;;
3343;SDS011;1685;53.104;8.228;2023-05-06T09:42:29;27.30;;;18.87;;
3343;SDS011;1685;53.104;8.228;2023-05-06T09:44:56;31.03;;;19.40;;
3343;SDS011;1685;53.104;8.228;2023-05-06T09:47:25;28.87;;;18.20;;
3343;SDS011;1685;53.104;8.228;2023-05-06T09:49:55;25.30;;;18.77;;
3343;SDS011;1685;53.104;8.228;2023-05-06T09:52:23;25.57;;;18.27;;
3343;SDS011;1685;53.104;8.228;2023-05-06T09:54:50;25.13;;;17.60;;
3343;SDS011;1685;53.104;8.228;2023-05-06T09:57:17;22.53;;;17.20;;
3343;SDS011;1685;53.104;8.228;2023-05-06T09:59:47;24.20;;;17.33;;
3343;SDS011;1685;53.104;8.228;2023-05-06T10:02:14;26.70;;;17.37;;
3343;SDS011;1685;53.104;8.228;2023-05-06T10:04:42;23.57;;;17.97;;
3343;SDS011;1685;53.104;8.228;2023-05-06T10:07:09;26.13;;;18.43;;
3343;SDS011;1685;53.104;8.228;2023-05-06T10:09:37;24.53;;;16.50;;
3343;SDS011;1685;53.104;8.228;2023-05-06T10:12:05;21.57;;;16.87;;
3343;SDS011;1685;53.104;8.228;2023-05-06T10:14:33;24.50;;;15.70;;
3343;SDS011;1685;53.104;8.228;2023-05-06T10:17:02;23.17;;;16.70;;
3343;SDS011;1685;53.104;8.228;2023-05-06T10:19:33;20.00;;;15.43;;
3343;SDS011;1685;53.104;8.228;2023-05-06T10:22:02;20.60;;;15.07;;
3343;SDS011;1685;53.104;8.228;2023-05-06T10:24:37;22.20;;;15.37;;
3343;SDS011;1685;53.104;8.228;2023-05-06T10:27:11;22.40;;;14.80;;
3343;SDS011;1685;53.104;8.228;2023-05-06T10:29:39;20.43;;;15.40;;
3343;SDS011;1685;53.104;8.228;2023-05-06T10:32:09;18.73;;;14.20;;
3343;SDS011;1685;53.104;8.228;2023-05-06T10:34:41;16.73;;;13.90;;
3343;SDS011;1685;53.104;8.228;2023-05-06T10:37:19;23.47;;;14.23;;
3343;SDS011;1685;53.104;8.228;2023-05-06T10:39:49;18.07;;;13.47;;
3343;SDS011;1685;53.104;8.228;2023-05-06T10:42:17;19.60;;;13.67;;
3343;SDS011;1685;53.104;8.228;2023-05-06T10:44:57;16.07;;;12.77;;
3343;SDS011;1685;53.104;8.228;2023-05-06T10:47:26;16.87;;;13.63;;
3343;SDS011;1685;53.104;8.228;2023-05-06T10:52:46;13.47;;;11.90;;
3343;SDS011;1685;53.104;8.228;2023-05-06T10:55:23;16.53;;;11.47;;
3343;SDS011;1685;53.104;8.228;2023-05-06T10:57:52;12.67;;;10.03;;
3343;SDS011;1685;53.104;8.228;2023-05-06T11:00:21;19.07;;;12.30;;
3343;SDS011;1685;53.104;8.228;2023-05-06T11:03:01;17.03;;;11.87;;
3343;SDS011;1685;53.104;8.228;2023-05-06T11:05:28;14.03;;;10.43;;
3343;SDS011;1685;53.104;8.228;2023-05-06T11:08:08;18.40;;;12.73;;
3343;SDS011;1685;53.104;8.228;2023-05-06T11:10:35;17.77;;;12.23;;
3343;SDS011;1685;53.104;8.228;2023-05-06T11:13:21;16.20;;;12.13;;
3343;SDS011;1685;53.104;8.228;2023-05-06T11:15:59;19.20;;;13.50;;
3343;SDS011;1685;53.104;8.228;2023-05-06T11:18:39;15.10;;;11.60;;
3343;SDS011;1685;53.104;8.228;2023-05-06T11:24:05;15.90;;;11.40;;
3343;SDS011;1685;53.104;8.228;2023-05-06T11:26:33;16.70;;;12.70;;
3343;SDS011;1685;53.104;8.228;2023-05-06T11:29:01;15.63;;;11.07;;
3343;SDS011;1685;53.104;8.228;2023-05-06T11:31:34;16.07;;;12.00;;
3343;SDS011;1685;53.104;8.228;2023-05-06T11:34:05;15.40;;;10.70;;
3343;SDS011;1685;53.104;8.228;2023-05-06T11:36:35;14.73;;;10.87;;
3343;SDS011;1685;53.104;8.228;2023-05-06T11:39:10;18.73;;;10.53;;
3343;SDS011;1685;53.104;8.228;2023-05-06T11:41:37;15.77;;;11.03;;
3343;SDS011;1685;53.104;8.228;2023-05-06T11:44:05;16.50;;;10.83;;
3343;SDS011;1685;53.104;8.228;2023-05-06T11:46:34;14.70;;;9.97;;
3343;SDS011;1685;53.104;8.228;2023-05-06T11:49:01;15.40;;;11.20;;
3343;SDS011;1685;53.104;8.228;2023-05-06T11:51:28;12.53;;;10.07;;
3343;SDS011;1685;53.104;8.228;2023-05-06T11:54:03;15.60;;;11.70;;
3343;SDS011;1685;53.104;8.228;2023-05-06T11:56:42;13.93;;;11.43;;
3343;SDS011;1685;53.104;8.228;2023-05-06T11:59:13;15.90;;;10.43;;
3343;SDS011;1685;53.104;8.228;2023-05-06T12:01:42;19.77;;;12.17;;
3343;SDS011;1685;53.104;8.228;2023-05-06T12:04:09;13.53;;;9.60;;
3343;SDS011;1685;53.104;8.228;2023-05-06T12:06:36;12.40;;;9.70;;
3343;SDS011;1685;53.104;8.228;2023-05-06T12:09:04;12.90;;;11.30;;
3343;SDS011;1685;53.104;8.228;2023-05-06T12:11:32;15.07;;;10.47;;
3343;SDS011;1685;53.104;8.228;2023-05-06T12:14:00;15.53;;;10.23;;
3343;SDS011;1685;53.104;8.228;2023-05-06T12:16:27;16.63;;;10.10;;
3343;SDS011;1685;53.104;8.228;2023-05-06T12:18:56;13.63;;;9.87;;
3343;SDS011;1685;53.104;8.228;2023-05-06T12:21:23;14.57;;;10.37;;
3343;SDS011;1685;53.104;8.228;2023-05-06T12:23:51;13.77;;;8.90;;
3343;SDS011;1685;53.104;8.228;2023-05-06T12:26:18;13.27;;;9.80;;
3343;SDS011;1685;53.104;8.228;2023-05-06T12:28:46;12.50;;;9.80;;
3343;SDS011;1685;53.104;8.228;2023-05-06T12:31:19;11.50;;;10.00;;
3343;SDS011;1685;53.104;8.228;2023-05-06T12:33:47;11.60;;;9.53;;
3343;SDS011;1685;53.104;8.228;2023-05-06T12:36:15;12.90;;;9.30;;
3343;SDS011;1685;53.104;8.228;2023-05-06T12:38:49;11.73;;;9.50;;
3343;SDS011;1685;53.104;8.228;2023-05-06T12:41:17;14.83;;;9.73;;
3343;SDS011;1685;53.104;8.228;2023-05-06T12:43:44;13.27;;;8.63;;
3343;SDS011;1685;53.104;8.228;2023-05-06T12:46:13;11.93;;;9.30;;
3343;SDS011;1685;53.104;8.228;2023-05-06T12:48:40;15.73;;;9.73;;
3343;SDS011;1685;53.104;8.228;2023-05-06T12:51:18;11.03;;;8.27;;
3343;SDS011;1685;53.104;8.228;2023-05-06T12:53:46;13.97;;;9.00;;
3343;SDS011;1685;53.104;8.228;2023-05-06T12:56:13;13.80;;;10.00;;
3343;SDS011;1685;53.104;8.228;2023-05-06T12:58:40;13.03;;;10.37;;
3343;SDS011;1685;53.104;8.228;2023-05-06T13:01:07;15.23;;;9.83;;
3343;SDS011;1685;53.104;8.228;2023-05-06T13:03:34;11.23;;;9.10;;
3343;SDS011;1685;53.104;8.228;2023-05-06T13:06:02;14.60;;;10.53;;
3343;SDS011;1685;53.104;8.228;2023-05-06T13:08:30;10.63;;;8.53;;
3343;SDS011;1685;53.104;8.228;2023-05-06T13:10:57;14.20;;;9.80;;
3343;SDS011;1685;53.104;8.228;2023-05-06T13:13:26;11.40;;;9.33;;
3343;SDS011;1685;53.104;8.228;2023-05-06T13:15:53;12.20;;;9.03;;
3343;SDS011;1685;53.104;8.228;2023-05-06T13:18:20;13.03;;;9.47;;
3343;SDS011;1685;53.104;8.228;2023-05-06T13:20:47;9.47;;;8.37;;
3343;SDS011;1685;53.104;8.228;2023-05-06T13:23:14;14.40;;;10.20;;
3343;SDS011;1685;53.104;8.228;2023-05-06T13:25:43;12.70;;;9.20;;
3343;SDS011;1685;53.104;8.228;2023-05-06T13:28:09;11.67;;;8.60;;
3343;SDS011;1685;53.104;8.228;2023-05-06T13:30:37;9.87;;;8.83;;
3343;SDS011;1685;53.104;8.228;2023-05-06T13:33:04;14.23;;;8.93;;
3343;SDS011;1685;53.104;8.228;2023-05-06T13:35:31;11.07;;;8.20;;
3343;SDS011;1685;53.104;8.228;2023-05-06T13:37:58;13.60;;;7.70;;
3343;SDS011;1685;53.104;8.228;2023-05-06T13:40:25;9.97;;;8.60;;
3343;SDS011;1685;53.104;8.228;2023-05-06T13:42:53;12.13;;;8.33;;
3343;SDS011;1685;53.104;8.228;2023-05-06T13:45:20;11.20;;;9.43;;
3343;SDS011;1685;53.104;8.228;2023-05-06T13:47:47;12.03;;;9.10;;
3343;SDS011;1685;53.104;8.228;2023-05-06T13:50:14;10.97;;;8.10;;
3343;SDS011;1685;53.104;8.228;2023-05-06T13:52:41;11.20;;;7.90;;
3343;SDS011;1685;53.104;8.228;2023-05-06T13:55:09;9.50;;;8.50;;
3343;SDS011;1685;53.104;8.228;2023-05-06T13:57:36;11.63;;;8.33;;
3343;SDS011;1685;53.104;8.228;2023-05-06T14:00:05;23.07;;;7.70;;
3343;SDS011;1685;53.104;8.228;2023-05-06T14:02:32;11.47;;;7.50;;
3343;SDS011;1685;53.104;8.228;2023-05-06T14:05:00;9.10;;;7.27;;
3343;SDS011;1685;53.104;8.228;2023-05-06T14:07:27;13.40;;;7.30;;
3343;SDS011;1685;53.104;8.228;2023-05-06T14:09:54;9.23;;;7.87;;
3343;SDS011;1685;53.104;8.228;2023-05-06T14:12:21;9.53;;;7.60;;
3343;SDS011;1685;53.104;8.228;2023-05-06T14:14:48;12.07;;;7.00;;
3343;SDS011;1685;53.104;8.228;2023-05-06T14:17:17;10.03;;;8.00;;
3343;SDS011;1685;53.104;8.228;2023-05-06T14:19:44;11.53;;;7.57;;
3343;SDS011;1685;53.104;8.228;2023-05-06T14:22:11;11.93;;;7.87;;
3343;SDS011;1685;53.104;8.228;2023-05-06T14:24:38;14.30;;;8.70;;
3343;SDS011;1685;53.104;8.228;2023-05-06T14:27:05;12.50;;;7.20;;
3343;SDS011;1685;53.104;8.228;2023-05-06T14:29:32;11.97;;;9.07;;
3343;SDS011;1685;53.104;8.228;2023-05-06T14:31:59;9.10;;;7.13;;
3343;SDS011;1685;53.104;8.228;2023-05-06T14:34:28;9.63;;;7.53;;
3343;SDS011;1685;53.104;8.228;2023-05-06T14:36:55;10.60;;;8.47;;
3343;SDS011;1685;53.104;8.228;2023-05-06T14:39:22;11.27;;;9.00;;
3343;SDS011;1685;53.104;8.228;2023-05-06T14:41:50;13.23;;;8.03;;
3343;SDS011;1685;53.104;8.228;2023-05-06T14:44:17;7.87;;;7.07;;
3343;SDS011;1685;53.104;8.228;2023-05-06T14:46:44;11.23;;;7.50;;
3343;SDS011;1685;53.104;8.228;2023-05-06T14:49:11;14.23;;;8.80;;
3343;SDS011;1685;53.104;8.228;2023-05-06T14:51:41;12.30;;;8.47;;
3343;SDS011;1685;53.104;8.228;2023-05-06T14:54:08;10.10;;;8.00;;
3343;SDS011;1685;53.104;8.228;2023-05-06T14:56:35;11.23;;;8.80;;
3343;SDS011;1685;53.104;8.228;2023-05-06T14:59:03;14.63;;;10.57;;
3343;SDS011;1685;53.104;8.228;2023-05-06T15:01:30;12.83;;;9.60;;